createdAt,value
2022-07-25T00:00:21.596Z,0
2022-07-25T00:01:26.525Z,0
2022-07-25T00:02:22.487Z,0
2022-07-25T00:03:24.276Z,0
2022-07-25T00:04:24.931Z,0
2022-07-25T00:05:23.240Z,0
2022-07-25T00:06:29.347Z,0
2022-07-25T00:07:24.893Z,0
2022-07-25T00:08:25.327Z,0
2022-07-25T00:09:26.832Z,0
2022-07-25T00:10:27.762Z,0
2022-07-25T00:11:27.969Z,0
2022-07-25T00:12:28.472Z,0
2022-07-25T00:13:28.409Z,0
2022-07-25T00:14:28.619Z,0
2022-07-25T00:15:29.549Z,0
2022-07-25T00:16:30.751Z,0
2022-07-25T00:17:30.724Z,0
2022-07-25T00:18:32.033Z,0
2022-07-25T00:19:32.545Z,0
2022-07-25T00:20:32.767Z,0
2022-07-25T00:21:33.414Z,0
2022-07-25T00:22:33.625Z,0
2022-07-25T00:23:34.548Z,0
2022-07-25T00:24:34.455Z,0
2022-07-25T00:25:35.492Z,0
2022-07-25T00:26:39.893Z,0
2022-07-25T00:27:36.491Z,0
2022-07-25T00:28:37.516Z,0
2022-07-25T00:29:37.462Z,0
2022-07-25T00:30:37.968Z,0
2022-07-25T00:31:39.329Z,0
2022-07-25T00:32:39.534Z,0
2022-07-25T00:33:40.035Z,0
2022-07-25T00:34:39.964Z,0
2022-07-25T00:35:40.466Z,0
2022-07-25T00:36:40.376Z,0
2022-07-25T00:37:41.026Z,0
2022-07-25T00:38:42.065Z,0
2022-07-25T00:39:47.086Z,0
2022-07-25T00:40:43.588Z,0
2022-07-25T00:41:43.927Z,0
2022-07-25T00:42:45.433Z,0
2022-07-25T00:43:45.932Z,0
2022-07-25T00:44:46.168Z,0
2022-07-25T00:45:46.661Z,0
2022-07-25T00:46:46.950Z,0
2022-07-25T00:47:46.693Z,0
2022-07-25T00:48:47.810Z,0
2022-07-25T00:49:48.849Z,0
2022-07-25T00:50:49.486Z,0
2022-07-25T00:51:49.984Z,0
2022-07-25T00:52:50.738Z,0
2022-07-25T00:53:51.948Z,0
2022-07-25T00:54:52.448Z,0
2022-07-25T00:55:52.393Z,0
2022-07-25T00:56:52.936Z,0
2022-07-25T00:57:53.135Z,0
2022-07-25T00:58:52.854Z,0
2022-07-25T00:59:54.355Z,0
2022-07-25T01:00:53.982Z,0
2022-07-25T01:01:55.236Z,0
2022-07-25T01:02:57.256Z,0
2022-07-25T01:03:57.284Z,0
2022-07-25T01:04:57.700Z,0
2022-07-25T01:06:04.776Z,0
2022-07-25T01:06:59.703Z,0
2022-07-25T01:08:00.205Z,0
2022-07-25T01:09:00.806Z,0
2022-07-25T01:10:00.222Z,0
2022-07-25T01:11:01.462Z,0
2022-07-25T01:12:01.100Z,0
2022-07-25T01:13:02.032Z,0
2022-07-25T01:14:02.680Z,0
2022-07-25T01:15:02.557Z,0
2022-07-25T01:16:04.053Z,0
2022-07-25T01:17:04.094Z,0
2022-07-25T01:18:05.640Z,0
2022-07-25T01:19:04.678Z,0
2022-07-25T01:20:05.333Z,0
2022-07-25T01:21:05.278Z,0
2022-07-25T01:22:05.796Z,0
2022-07-25T01:23:06.304Z,0
2022-07-25T01:24:07.048Z,0
2022-07-25T01:25:07.665Z,0
2022-07-25T01:26:07.881Z,0
2022-07-25T01:27:08.394Z,0
2022-07-25T01:28:08.622Z,0
2022-07-25T01:29:08.660Z,0
2022-07-25T01:30:09.890Z,0
2022-07-25T01:31:10.452Z,0
2022-07-25T01:32:11.050Z,0
2022-07-25T01:33:18.063Z,0
2022-07-25T01:34:13.353Z,0
2022-07-25T01:35:13.582Z,0
2022-07-25T01:36:13.537Z,0
2022-07-25T01:37:14.761Z,0
2022-07-25T01:38:15.270Z,0
2022-07-25T01:39:15.382Z,0
2022-07-25T01:40:15.892Z,0
2022-07-25T01:41:22.543Z,0
2022-07-25T01:42:17.269Z,0
2022-07-25T01:43:17.490Z,0
2022-07-25T01:44:18.528Z,0
2022-07-25T01:45:18.737Z,0
2022-07-25T01:46:19.267Z,0
2022-07-25T01:47:19.889Z,0
2022-07-25T01:48:22.307Z,0
2022-07-25T01:49:21.029Z,0
2022-07-25T01:50:20.385Z,0
2022-07-25T01:51:27.133Z,0
2022-07-25T01:52:21.782Z,0
2022-07-25T01:53:22.935Z,0
2022-07-25T01:54:23.547Z,0
2022-07-25T01:55:24.054Z,0
2022-07-25T01:56:28.998Z,0
2022-07-25T01:57:25.646Z,0
2022-07-25T01:58:27.217Z,0
2022-07-25T01:59:25.666Z,0
2022-07-25T02:00:26.607Z,0
2022-07-25T02:01:29.181Z,0
2022-07-25T02:02:28.325Z,0
2022-07-25T02:03:28.824Z,0
2022-07-25T02:04:29.332Z,0
2022-07-25T02:05:29.369Z,0
2022-07-25T02:06:30.921Z,0
2022-07-25T02:07:31.414Z,0
2022-07-25T02:08:31.920Z,0
2022-07-25T02:09:32.650Z,0
2022-07-25T02:10:33.159Z,0
2022-07-25T02:11:33.659Z,0
2022-07-25T02:12:34.173Z,0
2022-07-25T02:13:34.077Z,0
2022-07-25T02:14:35.303Z,0
2022-07-25T02:15:35.529Z,0
2022-07-25T02:16:40.948Z,0
2022-07-25T02:17:36.690Z,0
2022-07-25T02:18:37.151Z,0
2022-07-25T02:19:37.470Z,0
2022-07-25T02:20:37.394Z,0
2022-07-25T02:21:38.606Z,0
2022-07-25T02:22:39.112Z,0
2022-07-25T02:23:39.319Z,0
2022-07-25T02:24:39.543Z,0
2022-07-25T02:25:40.047Z,0
2022-07-25T02:26:40.548Z,0
2022-07-25T02:27:40.498Z,0
2022-07-25T02:28:41.706Z,0
2022-07-25T02:29:41.319Z,0
2022-07-25T02:30:42.565Z,0
2022-07-25T02:31:42.586Z,0
2022-07-25T02:32:43.513Z,0
2022-07-25T02:33:44.167Z,0
2022-07-25T02:34:45.073Z,0
2022-07-25T02:35:45.283Z,0
2022-07-25T02:36:45.504Z,0
2022-07-25T02:37:45.711Z,0
2022-07-25T02:38:45.916Z,0
2022-07-25T02:39:46.090Z,0
2022-07-25T02:40:47.312Z,0
2022-07-25T02:41:47.943Z,0
2022-07-25T02:42:48.595Z,0
2022-07-25T02:43:49.499Z,0
2022-07-25T02:44:49.404Z,0
2022-07-25T02:45:50.841Z,0
2022-07-25T02:46:52.849Z,0
2022-07-25T02:47:52.352Z,0
2022-07-25T02:48:52.545Z,0
2022-07-25T02:49:53.232Z,0
2022-07-25T02:50:54.158Z,0
2022-07-25T02:51:54.382Z,0
2022-07-25T02:52:55.011Z,0
2022-07-25T02:54:08.448Z,0
2022-07-25T02:54:56.127Z,0
2022-07-25T02:55:56.900Z,0
2022-07-25T02:56:57.115Z,0
2022-07-25T02:57:56.767Z,0
2022-07-25T02:58:58.264Z,0
2022-07-25T02:59:59.281Z,0
2022-07-25T03:00:59.643Z,0
2022-07-25T03:02:01.269Z,0
2022-07-25T03:03:00.474Z,0
2022-07-25T03:04:01.009Z,0
2022-07-25T03:05:00.855Z,0
2022-07-25T03:06:01.760Z,0
2022-07-25T03:07:03.259Z,0
2022-07-25T03:08:03.181Z,0
2022-07-25T03:09:05.662Z,0
2022-07-25T03:10:08.700Z,0
2022-07-25T03:11:05.710Z,0
2022-07-25T03:12:05.930Z,0
2022-07-25T03:13:05.857Z,0
2022-07-25T03:14:06.815Z,0
2022-07-25T03:15:07.538Z,0
2022-07-25T03:16:07.741Z,0
2022-07-25T03:17:08.604Z,0
2022-07-25T03:18:08.854Z,0
2022-07-25T03:19:09.732Z,0
2022-07-25T03:20:10.315Z,0
2022-07-25T03:21:10.815Z,4
2022-07-25T03:22:10.748Z,0
2022-07-25T03:23:11.676Z,0
2022-07-25T03:24:12.719Z,0
2022-07-25T03:25:27.559Z,4
2022-07-25T03:26:13.061Z,4
2022-07-25T03:27:13.284Z,0
2022-07-25T03:28:13.785Z,4
2022-07-25T03:29:14.008Z,4
2022-07-25T03:30:14.046Z,4
2022-07-25T03:31:15.377Z,4
2022-07-25T03:32:15.868Z,8
2022-07-25T03:33:15.538Z,4
2022-07-25T03:34:17.191Z,8
2022-07-25T03:35:17.391Z,8
2022-07-25T03:36:17.892Z,8
2022-07-25T03:37:18.115Z,8
2022-07-25T03:38:18.613Z,12
2022-07-25T03:39:18.818Z,12
2022-07-25T03:40:19.843Z,12
2022-07-25T03:41:18.475Z,16
2022-07-25T03:42:22.449Z,16
2022-07-25T03:43:20.391Z,16
2022-07-25T03:44:21.733Z,16
2022-07-25T03:45:20.944Z,16
2022-07-25T03:46:22.711Z,20
2022-07-25T03:47:32.195Z,24
2022-07-25T03:48:23.439Z,24
2022-07-25T03:49:24.786Z,24
2022-07-25T03:50:24.817Z,28
2022-07-25T03:51:26.061Z,32
2022-07-25T03:52:25.990Z,32
2022-07-25T03:53:26.630Z,36
2022-07-25T03:54:29.986Z,36
2022-07-25T03:55:29.292Z,36
2022-07-25T03:56:29.501Z,40
2022-07-25T03:57:29.842Z,44
2022-07-25T03:58:30.773Z,44
2022-07-25T03:59:31.404Z,48
2022-07-25T04:00:33.338Z,48
2022-07-25T04:01:33.574Z,52
2022-07-25T04:02:34.615Z,56
2022-07-25T04:03:34.054Z,60
2022-07-25T04:04:34.692Z,60
2022-07-25T04:05:34.919Z,64
2022-07-25T04:06:36.287Z,64
2022-07-25T04:07:36.649Z,68
2022-07-25T04:08:37.355Z,68
2022-07-25T04:09:43.535Z,76
2022-07-25T04:10:38.871Z,76
2022-07-25T04:11:39.100Z,76
2022-07-25T04:12:39.294Z,84
2022-07-25T04:13:39.500Z,88
2022-07-25T04:14:39.415Z,88
2022-07-25T04:15:43.636Z,92
2022-07-25T04:16:44.816Z,92
2022-07-25T04:17:45.986Z,96
2022-07-25T04:18:46.906Z,96
2022-07-25T04:19:44.215Z,100
2022-07-25T04:20:43.278Z,104
2022-07-25T04:21:44.483Z,108
2022-07-25T04:22:52.381Z,108
2022-07-25T04:23:45.603Z,108
2022-07-25T04:24:45.530Z,112
2022-07-25T04:25:46.175Z,112
2022-07-25T04:26:46.102Z,116
2022-07-25T04:27:46.618Z,120
2022-07-25T04:28:47.122Z,124
2022-07-25T04:29:47.626Z,124
2022-07-25T04:30:48.195Z,128
2022-07-25T04:31:48.711Z,132
2022-07-25T04:32:49.381Z,132
2022-07-25T04:33:49.637Z,136
2022-07-25T04:34:50.852Z,140
2022-07-25T04:35:51.360Z,144
2022-07-25T04:36:51.862Z,144
2022-07-25T04:37:52.361Z,148
2022-07-25T04:38:52.868Z,152
2022-07-25T04:39:52.784Z,156
2022-07-25T04:40:53.084Z,160
2022-07-25T04:41:53.011Z,164
2022-07-25T04:42:54.222Z,164
2022-07-25T04:43:59.588Z,168
2022-07-25T04:44:55.244Z,176
2022-07-25T04:45:56.679Z,180
2022-07-25T04:46:57.058Z,184
2022-07-25T04:47:58.280Z,188
2022-07-25T04:48:59.597Z,196
2022-07-25T04:49:59.030Z,196
2022-07-25T04:50:59.204Z,200
2022-07-25T04:52:00.076Z,204
2022-07-25T04:53:00.586Z,208
2022-07-25T04:54:00.808Z,212
2022-07-25T04:55:01.376Z,216
2022-07-25T04:56:01.592Z,220
2022-07-25T04:57:01.839Z,224
2022-07-25T04:58:02.054Z,228
2022-07-25T04:59:11.602Z,236
2022-07-25T05:00:02.811Z,236
2022-07-25T05:01:03.300Z,244
2022-07-25T05:02:03.848Z,248
2022-07-25T05:03:03.855Z,248
2022-07-25T05:04:04.529Z,252
2022-07-25T05:05:09.092Z,260
2022-07-25T05:06:05.204Z,268
2022-07-25T05:07:04.990Z,268
2022-07-25T05:08:06.205Z,276
2022-07-25T05:09:06.418Z,276
2022-07-25T05:10:06.620Z,284
2022-07-25T05:11:07.212Z,284
2022-07-25T05:12:09.146Z,292
2022-07-25T05:13:07.505Z,292
2022-07-25T05:14:10.324Z,300
2022-07-25T05:15:09.638Z,304
2022-07-25T05:16:10.352Z,304
2022-07-25T05:17:10.710Z,308
2022-07-25T05:18:11.210Z,316
2022-07-25T05:19:11.438Z,324
2022-07-25T05:20:11.582Z,328
2022-07-25T05:21:11.600Z,332
2022-07-25T05:22:13.201Z,336
2022-07-25T05:23:12.843Z,340
2022-07-25T05:24:15.449Z,344
2022-07-25T05:25:14.376Z,344
2022-07-25T05:26:14.008Z,348
2022-07-25T05:27:15.236Z,352
2022-07-25T05:28:15.596Z,360
2022-07-25T05:29:16.830Z,360
2022-07-25T05:30:16.504Z,368
2022-07-25T05:31:17.237Z,368
2022-07-25T05:32:18.285Z,372
2022-07-25T05:33:18.798Z,372
2022-07-25T05:34:19.544Z,372
2022-07-25T05:35:19.745Z,376
2022-07-25T05:36:20.252Z,380
2022-07-25T05:37:20.457Z,384
2022-07-25T05:38:20.381Z,388
2022-07-25T05:39:21.718Z,396
2022-07-25T05:40:21.645Z,404
2022-07-25T05:41:22.951Z,408
2022-07-25T05:42:23.181Z,416
2022-07-25T05:43:23.395Z,420
2022-07-25T05:44:23.599Z,424
2022-07-25T05:45:24.537Z,424
2022-07-25T05:46:25.626Z,432
2022-07-25T05:47:26.101Z,432
2022-07-25T05:48:26.634Z,428
2022-07-25T05:49:27.081Z,436
2022-07-25T05:50:27.729Z,444
2022-07-25T05:51:32.925Z,448
2022-07-25T05:52:28.129Z,448
2022-07-25T05:53:27.754Z,460
2022-07-25T05:54:28.690Z,464
2022-07-25T05:55:29.348Z,468
2022-07-25T05:56:30.280Z,476
2022-07-25T05:57:30.185Z,476
2022-07-25T05:58:35.494Z,480
2022-07-25T05:59:30.720Z,484
2022-07-25T06:00:31.224Z,488
2022-07-25T06:01:31.801Z,492
2022-07-25T06:02:32.537Z,496
2022-07-25T06:03:33.039Z,500
2022-07-25T06:04:38.127Z,504
2022-07-25T06:05:32.763Z,508
2022-07-25T06:06:33.673Z,516
2022-07-25T06:07:34.626Z,516
2022-07-25T06:08:35.486Z,528
2022-07-25T06:09:35.368Z,528
2022-07-25T06:10:38.286Z,532
2022-07-25T06:11:38.046Z,536
2022-07-25T06:12:36.938Z,544
2022-07-25T06:13:40.555Z,564
2022-07-25T06:14:38.394Z,564
2022-07-25T06:15:39.682Z,572
2022-07-25T06:16:38.790Z,576
2022-07-25T06:17:43.471Z,580
2022-07-25T06:18:39.693Z,580
2022-07-25T06:19:39.334Z,588
2022-07-25T06:20:40.277Z,584
2022-07-25T06:21:41.608Z,584
2022-07-25T06:22:41.869Z,592
2022-07-25T06:23:42.819Z,592
2022-07-25T06:24:43.031Z,600
2022-07-25T06:25:44.207Z,604
2022-07-25T06:26:44.337Z,608
2022-07-25T06:27:44.838Z,616
2022-07-25T06:28:45.047Z,620
2022-07-25T06:29:45.268Z,624
2022-07-25T06:30:45.909Z,632
2022-07-25T06:31:51.762Z,640
2022-07-25T06:32:47.170Z,644
2022-07-25T06:33:47.105Z,648
2022-07-25T06:34:47.461Z,656
2022-07-25T06:35:48.372Z,632
2022-07-25T06:36:48.879Z,652
2022-07-25T06:37:48.504Z,668
2022-07-25T06:38:49.786Z,664
2022-07-25T06:39:56.416Z,676
2022-07-25T06:40:52.073Z,676
2022-07-25T06:41:52.431Z,680
2022-07-25T06:42:52.434Z,684
2022-07-25T06:43:53.196Z,692
2022-07-25T06:44:54.108Z,700
2022-07-25T06:45:55.334Z,708
2022-07-25T06:46:56.716Z,708
2022-07-25T06:47:56.097Z,712
2022-07-25T06:48:57.287Z,720
2022-07-25T06:49:57.441Z,724
2022-07-25T06:50:58.698Z,732
2022-07-25T06:51:59.274Z,736
2022-07-25T06:53:00.215Z,736
2022-07-25T06:54:01.149Z,740
2022-07-25T06:55:01.741Z,748
2022-07-25T06:56:01.748Z,748
2022-07-25T06:57:02.242Z,760
2022-07-25T06:58:02.754Z,768
2022-07-25T06:59:02.968Z,764
2022-07-25T07:00:02.903Z,772
2022-07-25T07:01:03.564Z,776
2022-07-25T07:02:04.341Z,780
2022-07-25T07:03:05.111Z,788
2022-07-25T07:04:05.896Z,796
2022-07-25T07:05:06.059Z,792
2022-07-25T07:06:06.291Z,800
2022-07-25T07:07:07.230Z,808
2022-07-25T07:08:08.166Z,812
2022-07-25T07:09:08.543Z,816
2022-07-25T07:10:09.782Z,820
2022-07-25T07:11:11.033Z,824
2022-07-25T07:12:11.038Z,828
2022-07-25T07:13:13.550Z,832
2022-07-25T07:14:13.177Z,836
2022-07-25T07:15:12.404Z,840
2022-07-25T07:16:13.001Z,844
2022-07-25T07:17:13.371Z,852
2022-07-25T07:18:13.731Z,888
2022-07-25T07:19:15.961Z,1072
2022-07-25T07:20:15.241Z,996
2022-07-25T07:21:26.812Z,1364
2022-07-25T07:22:19.329Z,1152
2022-07-25T07:23:24.556Z,1292
2022-07-25T07:24:37.782Z,1696
2022-07-25T07:25:19.617Z,1328
2022-07-25T07:26:19.585Z,1780
2022-07-25T07:27:19.521Z,2048
2022-07-25T07:28:20.463Z,2244
2022-07-25T07:29:21.386Z,1988
2022-07-25T07:30:58.933Z,1988
2022-07-25T07:31:31.930Z,2052
2022-07-25T07:32:31.609Z,2012
2022-07-25T07:33:32.838Z,1964
2022-07-25T07:34:33.498Z,1640
2022-07-25T07:35:39.987Z,1812
2022-07-25T07:36:34.498Z,1588
2022-07-25T07:37:48.139Z,1560
2022-07-25T07:38:35.052Z,1480
2022-07-25T07:39:35.265Z,1484
2022-07-25T07:40:35.929Z,1460
2022-07-25T07:41:38.179Z,1460
2022-07-25T07:42:37.762Z,1476
2022-07-25T07:43:40.603Z,1448
2022-07-25T07:44:38.810Z,1540
2022-07-25T07:45:39.753Z,1520
2022-07-25T07:46:40.390Z,1468
2022-07-25T07:47:40.472Z,1488
2022-07-25T07:48:41.746Z,1420
2022-07-25T07:49:55.862Z,1404
2022-07-25T07:50:42.812Z,1428
2022-07-25T07:51:43.450Z,1412
2022-07-25T07:52:44.741Z,1468
2022-07-25T07:53:45.681Z,1512
2022-07-25T07:54:46.610Z,1596
2022-07-25T07:55:47.428Z,1676
2022-07-25T07:56:47.063Z,1728
2022-07-25T07:57:48.274Z,2096
2022-07-25T07:58:48.549Z,2232
2022-07-25T07:59:49.217Z,2004
2022-07-25T08:00:50.441Z,2100
2022-07-25T08:01:50.392Z,2328
2022-07-25T08:02:51.406Z,3020
2022-07-25T08:03:51.808Z,3380
2022-07-25T08:04:52.061Z,3416
2022-07-25T08:05:52.310Z,3500
2022-07-25T08:06:52.259Z,3296
2022-07-25T08:07:53.776Z,2792
2022-07-25T08:08:53.503Z,2328
2022-07-25T08:09:54.428Z,2248
2022-07-25T08:10:58.685Z,2160
2022-07-25T08:11:55.626Z,2004
2022-07-25T08:12:55.342Z,2008
2022-07-25T08:13:56.863Z,2008
2022-07-25T08:14:56.807Z,2180
2022-07-25T08:15:57.405Z,2224
2022-07-25T08:16:58.072Z,2256
2022-07-25T08:17:57.780Z,2140
2022-07-25T08:18:57.694Z,2272
2022-07-25T08:20:09.359Z,2340
2022-07-25T08:20:59.708Z,2340
2022-07-25T08:22:00.645Z,2476
2022-07-25T08:23:06.914Z,2416
2022-07-25T08:24:01.142Z,2304
2022-07-25T08:25:01.197Z,2056
2022-07-25T08:26:02.136Z,1936
2022-07-25T08:27:03.074Z,2140
2022-07-25T08:28:04.011Z,1980
2022-07-25T08:29:34.183Z,2180
2022-07-25T08:30:04.433Z,3444
2022-07-25T08:31:05.430Z,2788
2022-07-25T08:32:05.860Z,3380
2022-07-25T08:33:06.061Z,3824
2022-07-25T08:34:08.563Z,4288
2022-07-25T08:35:11.449Z,4284
2022-07-25T08:36:08.545Z,4236
2022-07-25T08:37:09.179Z,3804
2022-07-25T08:38:10.402Z,3232
2022-07-25T08:39:11.372Z,2936
2022-07-25T08:40:11.839Z,2728
2022-07-25T08:41:12.091Z,2588
2022-07-25T08:42:16.877Z,2452
2022-07-25T08:43:12.312Z,2364
2022-07-25T08:44:14.709Z,2368
2022-07-25T08:45:13.935Z,2640
2022-07-25T08:46:14.505Z,2760
2022-07-25T08:47:18.111Z,2592
2022-07-25T08:48:15.031Z,2356
2022-07-25T08:49:16.705Z,2120
2022-07-25T08:50:17.037Z,2120
2022-07-25T08:51:17.539Z,2292
2022-07-25T08:52:17.750Z,2392
2022-07-25T08:53:48.436Z,2408
2022-07-25T08:54:44.782Z,2428
2022-07-25T08:55:44.730Z,2384
2022-07-25T08:56:46.032Z,2320
2022-07-25T08:57:46.473Z,2324
2022-07-25T08:58:46.684Z,2264
2022-07-25T08:59:46.341Z,2416
2022-07-25T09:00:47.612Z,2848
2022-07-25T09:01:48.264Z,3048
2022-07-25T09:02:48.253Z,3244
2022-07-25T09:03:48.630Z,3664
2022-07-25T09:04:48.985Z,4632
2022-07-25T09:05:49.667Z,5748
2022-07-25T09:06:54.023Z,6636
2022-07-25T09:07:51.556Z,6836
2022-07-25T09:08:50.964Z,7520
2022-07-25T09:09:52.227Z,7280
2022-07-25T09:10:52.753Z,7976
2022-07-25T09:11:53.276Z,7976
2022-07-25T09:12:53.498Z,8716
2022-07-25T09:13:54.140Z,9828
2022-07-25T09:14:54.554Z,10712
2022-07-25T09:15:57.331Z,10948
2022-07-25T09:16:56.777Z,11236
2022-07-25T09:17:55.527Z,11404
2022-07-25T09:18:56.050Z,11572
2022-07-25T09:19:56.575Z,11528
2022-07-25T09:20:55.940Z,11436
2022-07-25T09:21:59.743Z,11344
2022-07-25T09:22:58.162Z,11488
2022-07-25T09:23:59.228Z,11960
2022-07-25T09:24:59.894Z,12272
2022-07-25T09:26:00.880Z,12392
2022-07-25T09:27:01.399Z,12352
2022-07-25T09:28:01.362Z,12440
2022-07-25T09:29:01.314Z,12448
2022-07-25T09:30:01.947Z,12352
2022-07-25T09:31:04.364Z,12392
2022-07-25T09:32:04.156Z,12572
2022-07-25T09:33:04.550Z,12564
2022-07-25T09:34:05.154Z,12564
2022-07-25T09:35:05.292Z,12504
2022-07-25T09:36:06.260Z,12464
2022-07-25T09:37:07.546Z,12504
2022-07-25T09:38:07.491Z,12568
2022-07-25T09:39:07.755Z,12608
2022-07-25T09:40:08.709Z,12484
2022-07-25T09:41:08.708Z,12524
2022-07-25T09:42:09.658Z,12492
2022-07-25T09:43:10.309Z,12508
2022-07-25T09:44:12.540Z,12436
2022-07-25T09:45:11.808Z,12444
2022-07-25T09:46:12.066Z,12424
2022-07-25T09:47:11.895Z,12424
2022-07-25T09:48:12.555Z,12348
2022-07-25T09:49:14.153Z,12296
2022-07-25T09:50:14.147Z,12432
2022-07-25T09:51:14.416Z,12464
2022-07-25T09:52:15.063Z,12392
2022-07-25T09:53:16.303Z,12332
2022-07-25T09:54:17.282Z,12284
2022-07-25T09:55:17.573Z,12292
2022-07-25T09:56:17.798Z,12260
2022-07-25T09:57:18.142Z,12264
2022-07-25T09:58:19.316Z,12276
2022-07-25T09:59:19.277Z,12340
2022-07-25T10:00:24.885Z,12276
2022-07-25T10:01:20.405Z,12280
2022-07-25T10:02:20.354Z,12216
2022-07-25T10:03:20.776Z,12208
2022-07-25T10:04:21.534Z,12084
2022-07-25T10:05:22.057Z,12076
2022-07-25T10:06:22.565Z,11992
2022-07-25T10:07:24.983Z,11864
2022-07-25T10:08:23.241Z,11892
2022-07-25T10:09:23.475Z,11964
2022-07-25T10:10:24.002Z,11872
2022-07-25T10:11:23.949Z,11796
2022-07-25T10:12:24.481Z,11776
2022-07-25T10:13:24.702Z,11752
2022-07-25T10:14:25.291Z,11720
2022-07-25T10:15:25.521Z,11668
2022-07-25T10:16:25.562Z,11568
2022-07-25T10:17:26.377Z,11576
2022-07-25T10:18:26.603Z,11488
2022-07-25T10:19:27.256Z,11488
2022-07-25T10:20:28.525Z,11472
2022-07-25T10:21:37.573Z,11392
2022-07-25T10:23:03.551Z,11384
2022-07-25T10:23:29.765Z,11440
2022-07-25T10:24:30.139Z,11392
2022-07-25T10:25:30.813Z,11308
2022-07-25T10:26:31.511Z,11272
2022-07-25T10:27:32.775Z,11244
2022-07-25T10:28:33.352Z,11256
2022-07-25T10:29:34.465Z,11184
2022-07-25T10:30:35.219Z,11108
2022-07-25T10:31:35.395Z,11168
2022-07-25T10:32:36.641Z,11052
2022-07-25T10:33:36.865Z,11048
2022-07-25T10:34:37.195Z,11008
2022-07-25T10:35:38.475Z,11016
2022-07-25T10:36:38.712Z,11024
2022-07-25T10:37:38.650Z,10992
2022-07-25T10:38:39.470Z,10864
2022-07-25T10:39:40.169Z,10932
2022-07-25T10:40:41.410Z,10896
2022-07-25T10:41:41.363Z,10872
2022-07-25T10:42:42.886Z,10792
2022-07-25T10:43:46.913Z,10876
2022-07-25T10:44:44.070Z,10816
2022-07-25T10:45:49.311Z,10752
2022-07-25T10:46:44.584Z,10680
2022-07-25T10:47:44.830Z,10652
2022-07-25T10:48:45.108Z,10592
2022-07-25T10:50:34.551Z,10600
2022-07-25T10:51:08.427Z,10624
2022-07-25T10:52:07.710Z,10508
2022-07-25T10:53:08.657Z,10544
2022-07-25T10:54:08.890Z,10456
2022-07-25T10:55:09.921Z,10380
2022-07-25T10:56:17.516Z,10384
2022-07-25T10:57:10.462Z,10372
2022-07-25T10:58:28.194Z,10296
2022-07-25T10:59:13.565Z,10272
2022-07-25T11:00:12.799Z,10224
2022-07-25T11:01:14.347Z,10300
2022-07-25T11:02:15.002Z,10344
2022-07-25T11:03:23.471Z,10280
2022-07-25T11:04:16.115Z,10260
2022-07-25T11:05:17.152Z,10256
2022-07-25T11:06:17.383Z,10220
2022-07-25T11:07:17.373Z,10260
2022-07-25T11:08:32.506Z,10240
2022-07-25T11:09:28.394Z,10148
2022-07-25T11:10:18.976Z,10200
2022-07-25T11:11:18.626Z,10168
2022-07-25T11:12:20.147Z,10120
2022-07-25T11:13:20.090Z,10088
2022-07-25T11:14:20.742Z,10080
2022-07-25T11:15:25.581Z,10052
2022-07-25T11:16:22.657Z,10076
2022-07-25T11:17:23.123Z,9932
2022-07-25T11:18:23.666Z,9788
2022-07-25T11:19:25.000Z,9720
2022-07-25T11:20:23.659Z,9664
2022-07-25T11:21:25.187Z,9608
2022-07-25T11:22:25.430Z,9588
2022-07-25T11:23:25.657Z,9560
2022-07-25T11:24:26.300Z,9512
2022-07-25T11:25:27.345Z,9436
2022-07-25T11:26:28.270Z,9420
2022-07-25T11:27:28.515Z,9412
2022-07-25T11:28:29.452Z,9360
2022-07-25T11:29:30.099Z,9240
2022-07-25T11:30:31.400Z,9236
2022-07-25T11:31:31.838Z,9184
2022-07-25T11:32:31.972Z,9116
2022-07-25T11:33:33.469Z,9124
2022-07-25T11:34:33.760Z,8996
2022-07-25T11:35:33.507Z,8972
2022-07-25T11:36:34.740Z,8948
2022-07-25T11:37:35.040Z,8900
2022-07-25T11:38:36.214Z,8780
2022-07-25T11:39:35.886Z,8704
2022-07-25T11:40:36.104Z,8736
2022-07-25T11:41:37.324Z,8584
2022-07-25T11:42:38.547Z,8536
2022-07-25T11:43:39.484Z,8468
2022-07-25T11:44:42.945Z,8388
2022-07-25T11:45:40.004Z,8296
2022-07-25T11:46:40.871Z,8364
2022-07-25T11:47:41.089Z,8268
2022-07-25T11:48:42.531Z,8144
2022-07-25T11:49:43.208Z,8088
2022-07-25T11:50:44.157Z,8044
2022-07-25T11:51:44.391Z,7972
2022-07-25T11:52:44.634Z,7956
2022-07-25T11:53:44.856Z,7924
2022-07-25T11:54:46.103Z,7816
2022-07-25T11:55:47.136Z,7828
2022-07-25T11:56:55.098Z,7772
2022-07-25T11:57:48.316Z,7744
2022-07-25T11:58:49.259Z,7688
2022-07-25T11:59:49.599Z,7588
2022-07-25T12:00:49.248Z,7560
2022-07-25T12:01:50.511Z,7524
2022-07-25T12:02:51.633Z,7536
2022-07-25T12:03:51.512Z,7520
2022-07-25T12:04:52.247Z,7496
2022-07-25T12:05:53.283Z,7456
2022-07-25T12:06:53.541Z,7412
2022-07-25T12:07:54.166Z,7364
2022-07-25T12:08:55.690Z,7332
2022-07-25T12:09:56.206Z,7280
2022-07-25T12:10:57.229Z,7232
2022-07-25T12:11:57.174Z,7220
2022-07-25T12:12:58.422Z,7188
2022-07-25T12:13:58.660Z,7152
2022-07-25T12:14:58.883Z,7080
2022-07-25T12:16:00.285Z,7048
2022-07-25T12:17:00.639Z,7004
2022-07-25T12:18:01.299Z,6960
2022-07-25T12:19:01.625Z,6960
2022-07-25T12:20:02.063Z,6920
2022-07-25T12:21:02.175Z,6868
2022-07-25T12:22:03.405Z,6844
2022-07-25T12:23:03.639Z,6776
2022-07-25T12:24:04.591Z,6780
2022-07-25T12:25:04.817Z,6720
2022-07-25T12:26:05.845Z,6688
2022-07-25T12:27:06.087Z,6712
2022-07-25T12:28:06.041Z,6704
2022-07-25T12:29:07.298Z,6688
2022-07-25T12:30:07.480Z,6648
2022-07-25T12:31:08.681Z,6584
2022-07-25T12:32:09.350Z,6544
2022-07-25T12:33:09.601Z,6520
2022-07-25T12:34:10.535Z,6524
2022-07-25T12:35:10.828Z,6476
2022-07-25T12:36:14.179Z,6424
2022-07-25T12:37:11.411Z,6428
2022-07-25T12:38:12.349Z,6392
2022-07-25T12:39:14.160Z,6372
2022-07-25T12:40:14.214Z,6344
2022-07-25T12:41:17.767Z,6336
2022-07-25T12:42:14.958Z,6284
2022-07-25T12:43:16.218Z,6248
2022-07-25T12:44:16.442Z,6208
2022-07-25T12:45:16.681Z,6192
2022-07-25T12:46:17.870Z,6152
2022-07-25T12:47:17.613Z,6108
2022-07-25T12:48:18.928Z,6060
2022-07-25T12:49:20.562Z,6012
2022-07-25T12:50:21.184Z,5968
2022-07-25T12:51:21.552Z,5940
2022-07-25T12:52:22.282Z,5884
2022-07-25T12:53:23.508Z,5848
2022-07-25T12:54:28.241Z,5812
2022-07-25T12:55:23.338Z,5788
2022-07-25T12:56:24.385Z,5740
2022-07-25T12:57:24.988Z,5732
2022-07-25T12:58:25.209Z,5688
2022-07-25T12:59:25.854Z,5624
2022-07-25T13:00:26.811Z,5608
2022-07-25T13:01:27.291Z,5596
2022-07-25T13:02:27.777Z,5564
2022-07-25T13:03:28.466Z,5568
2022-07-25T13:04:28.984Z,5532
2022-07-25T13:05:28.916Z,5492
2022-07-25T13:06:29.730Z,5432
2022-07-25T13:07:30.507Z,5392
2022-07-25T13:08:31.728Z,5360
2022-07-25T13:09:31.946Z,5324
2022-07-25T13:10:31.874Z,5284
2022-07-25T13:11:32.818Z,5248
2022-07-25T13:12:33.057Z,5220
2022-07-25T13:13:34.822Z,5200
2022-07-25T13:14:35.041Z,5156
2022-07-25T13:15:36.020Z,5108
2022-07-25T13:16:37.249Z,5076
2022-07-25T13:17:38.712Z,5040
2022-07-25T13:18:38.234Z,5000
2022-07-25T13:19:38.582Z,4952
2022-07-25T13:20:39.807Z,4920
2022-07-25T13:21:40.042Z,4864
2022-07-25T13:22:41.388Z,4832
2022-07-25T13:23:41.907Z,4788
2022-07-25T13:24:41.828Z,4728
2022-07-25T13:25:42.493Z,4680
2022-07-25T13:26:42.945Z,4656
2022-07-25T13:27:42.871Z,4608
2022-07-25T13:28:44.107Z,4576
2022-07-25T13:29:49.059Z,4540
2022-07-25T13:30:45.215Z,4492
2022-07-25T13:31:46.079Z,4448
2022-07-25T13:32:46.742Z,4424
2022-07-25T13:33:47.393Z,4396
2022-07-25T13:34:48.618Z,4384
2022-07-25T13:35:50.933Z,4328
2022-07-25T13:36:48.641Z,4276
2022-07-25T13:37:49.307Z,4212
2022-07-25T13:38:50.231Z,4180
2022-07-25T13:39:51.448Z,4160
2022-07-25T13:40:54.450Z,4108
2022-07-25T13:41:52.376Z,4048
2022-07-25T13:42:52.891Z,4024
2022-07-25T13:43:53.153Z,4000
2022-07-25T13:44:54.384Z,3972
2022-07-25T13:45:54.846Z,3944
2022-07-25T13:46:56.919Z,3908
2022-07-25T13:48:34.950Z,3844
2022-07-25T13:48:55.097Z,3840
2022-07-25T13:49:55.412Z,3816
2022-07-25T13:50:56.653Z,3772
2022-07-25T13:51:57.202Z,3748
2022-07-25T13:52:57.525Z,3712